createdAt,value
2019-01-08T00:00:35.255Z,1003.81
2019-01-08T00:01:35.295Z,1003.76
2019-01-08T00:02:35.143Z,1003.72
2019-01-08T00:03:35.135Z,1003.73
2019-01-08T00:04:35.024Z,1003.72
2019-01-08T00:05:34.981Z,1003.71
2019-01-08T00:06:34.938Z,1003.66
2019-01-08T00:07:34.870Z,1003.62
2019-01-08T00:08:34.812Z,1003.65
2019-01-08T00:09:34.803Z,1003.62
2019-01-08T00:10:34.703Z,1003.61
2019-01-08T00:11:34.650Z,1003.59
2019-01-08T00:12:34.612Z,1003.63
2019-01-08T00:13:34.552Z,1003.53
2019-01-08T00:14:34.543Z,1003.61
2019-01-08T00:15:34.542Z,1003.50
2019-01-08T00:16:34.374Z,1003.48
2019-01-08T00:17:34.387Z,1003.45
2019-01-08T00:18:34.269Z,1003.41
2019-01-08T00:19:34.229Z,1003.44
2019-01-08T00:20:34.162Z,1003.47
2019-01-08T00:21:34.105Z,1003.46
2019-01-08T00:22:34.061Z,1003.47
2019-01-08T00:23:33.996Z,1003.42
2019-01-08T00:24:33.960Z,1003.42
2019-01-08T00:25:33.892Z,1003.46
2019-01-08T00:26:33.873Z,1003.45
2019-01-08T00:27:33.783Z,1003.49
2019-01-08T00:28:33.787Z,1003.56
2019-01-08T00:29:33.758Z,1003.55
2019-01-08T00:30:33.608Z,1003.47
2019-01-08T00:31:33.561Z,1003.46
2019-01-08T00:32:33.558Z,1003.46
2019-01-08T00:33:33.453Z,1003.45
2019-01-08T00:34:33.416Z,1003.34
2019-01-08T00:35:33.327Z,1003.42
2019-01-08T00:36:33.293Z,1003.42
2019-01-08T00:37:33.232Z,1003.40
2019-01-08T00:38:33.174Z,1003.40
2019-01-08T00:39:33.144Z,1003.39
2019-01-08T00:40:33.075Z,1003.31
2019-01-08T00:41:33.009Z,1003.31
2019-01-08T00:42:32.959Z,1003.40
2019-01-08T00:43:32.905Z,1003.41
2019-01-08T00:44:32.900Z,1003.34
2019-01-08T00:45:32.797Z,1003.38
2019-01-08T00:46:32.733Z,1003.40
2019-01-08T00:47:32.675Z,1003.36
2019-01-08T00:48:32.614Z,1003.36
2019-01-08T00:49:32.596Z,1003.28
2019-01-08T00:50:32.537Z,1003.25
2019-01-08T00:51:32.484Z,1003.35
2019-01-08T00:52:32.409Z,1003.32
2019-01-08T00:53:32.353Z,1003.31
2019-01-08T00:54:32.346Z,1003.32
2019-01-08T00:55:32.231Z,1003.28
2019-01-08T00:56:32.228Z,1003.29
2019-01-08T00:57:32.188Z,1003.33
2019-01-08T00:58:32.092Z,1003.23
2019-01-08T00:59:32.081Z,1003.23
2019-01-08T01:00:32.042Z,1003.29
2019-01-08T01:01:31.932Z,1003.26
2019-01-08T01:02:31.866Z,1003.19
2019-01-08T01:03:31.872Z,1003.18
2019-01-08T01:04:31.803Z,1003.30
2019-01-08T01:05:31.746Z,1003.22
2019-01-08T01:06:31.645Z,1003.23
2019-01-08T01:07:31.577Z,1003.23
2019-01-08T01:08:31.518Z,1003.17
2019-01-08T01:09:31.555Z,1003.24
2019-01-08T01:10:31.419Z,1003.28
2019-01-08T01:11:31.352Z,1003.29
2019-01-08T01:12:31.296Z,1003.28
2019-01-08T01:13:31.249Z,1003.24
2019-01-08T01:14:31.259Z,1003.30
2019-01-08T01:15:31.190Z,1003.27
2019-01-08T01:16:31.083Z,1003.26
2019-01-08T01:17:31.039Z,1003.24
2019-01-08T01:18:30.973Z,1003.29
2019-01-08T01:19:30.931Z,1003.25
2019-01-08T01:20:30.879Z,1003.19
2019-01-08T01:21:30.824Z,1003.18
2019-01-08T01:22:30.752Z,1003.09
2019-01-08T01:23:30.705Z,1003.10
2019-01-08T01:24:30.640Z,1003.12
2019-01-08T01:25:30.720Z,1003.08
2019-01-08T01:26:30.559Z,1003.13
2019-01-08T01:27:30.474Z,1003.09
2019-01-08T01:28:30.428Z,1003.10
2019-01-08T01:29:30.365Z,1003.06
2019-01-08T01:30:30.334Z,1003.03
2019-01-08T01:31:30.251Z,1003.02
2019-01-08T01:32:30.195Z,1003.00
2019-01-08T01:33:30.146Z,1003.07
2019-01-08T01:34:30.100Z,1002.95
2019-01-08T01:35:30.066Z,1002.94
2019-01-08T01:36:29.979Z,1002.95
2019-01-08T01:37:29.944Z,1002.93
2019-01-08T01:38:29.868Z,1002.95
2019-01-08T01:39:29.817Z,1002.93
2019-01-08T01:40:29.822Z,1002.95
2019-01-08T01:41:29.711Z,1002.93
2019-01-08T01:42:29.658Z,1002.96
2019-01-08T01:43:29.606Z,1002.97
2019-01-08T01:44:29.559Z,1002.95
2019-01-08T01:45:29.514Z,1002.96
2019-01-08T01:46:29.432Z,1002.93
2019-01-08T01:47:29.374Z,1002.92
2019-01-08T01:48:29.337Z,1002.92
2019-01-08T01:49:29.263Z,1002.90
2019-01-08T01:50:29.227Z,1002.92
2019-01-08T01:51:29.145Z,1002.93
2019-01-08T01:52:29.108Z,1002.88
2019-01-08T01:53:29.046Z,1002.92
2019-01-08T01:54:28.980Z,1002.95
2019-01-08T01:55:28.961Z,1002.90
2019-01-08T01:56:28.870Z,1002.92
2019-01-08T01:57:28.830Z,1002.95
2019-01-08T01:58:28.802Z,1002.95
2019-01-08T01:59:28.712Z,1002.90
2019-01-08T02:00:28.676Z,1002.88
2019-01-08T02:01:28.598Z,1002.81
2019-01-08T02:02:28.558Z,1002.78
2019-01-08T02:03:28.491Z,1002.79
2019-01-08T02:04:28.442Z,1002.82
2019-01-08T02:05:28.405Z,1002.78
2019-01-08T02:06:28.336Z,1002.73
2019-01-08T02:07:28.284Z,1002.71
2019-01-08T02:08:28.241Z,1002.64
2019-01-08T02:09:28.158Z,1002.69
2019-01-08T02:10:28.133Z,1002.69
2019-01-08T02:11:28.152Z,1002.71
2019-01-08T02:12:28.024Z,1002.69
2019-01-08T02:13:27.934Z,1002.73
2019-01-08T02:14:27.884Z,1002.73
2019-01-08T02:15:27.829Z,1002.70
2019-01-08T02:16:27.811Z,1002.70
2019-01-08T02:17:27.728Z,1002.63
2019-01-08T02:18:27.712Z,1002.70
2019-01-08T02:19:27.619Z,1002.66
2019-01-08T02:20:27.631Z,1002.71
2019-01-08T02:21:27.630Z,1002.73
2019-01-08T02:22:27.442Z,1002.77
2019-01-08T02:23:27.385Z,1002.74
2019-01-08T02:24:27.339Z,1002.61
2019-01-08T02:25:27.314Z,1002.63
2019-01-08T02:26:27.263Z,1002.61
2019-01-08T02:27:27.169Z,1002.52
2019-01-08T02:28:27.141Z,1002.56
2019-01-08T02:29:27.062Z,1002.52
2019-01-08T02:30:27.016Z,1002.48
2019-01-08T02:31:26.967Z,1002.55
2019-01-08T02:32:26.893Z,1002.52
2019-01-08T02:33:26.835Z,1002.48
2019-01-08T02:34:26.785Z,1002.44
2019-01-08T02:35:26.716Z,1002.47
2019-01-08T02:36:26.883Z,1002.45
2019-01-08T02:37:26.606Z,1002.44
2019-01-08T02:38:26.554Z,1002.45
2019-01-08T02:39:26.535Z,1002.45
2019-01-08T02:40:26.473Z,1002.45
2019-01-08T02:41:26.514Z,1002.41
2019-01-08T02:42:26.370Z,1002.41
2019-01-08T02:43:26.315Z,1002.33
2019-01-08T02:44:26.314Z,1002.38
2019-01-08T02:45:26.168Z,1002.27
2019-01-08T02:46:26.207Z,1002.27
2019-01-08T02:47:26.115Z,1002.31
2019-01-08T02:48:26.000Z,1002.31
2019-01-08T02:49:25.947Z,1002.20
2019-01-08T02:50:25.936Z,1002.21
2019-01-08T02:51:25.836Z,1002.21
2019-01-08T02:52:25.877Z,1002.25
2019-01-08T02:53:25.746Z,1002.13
2019-01-08T02:54:25.778Z,1002.13
2019-01-08T02:55:25.640Z,1002.12
2019-01-08T02:56:25.562Z,1002.09
2019-01-08T02:57:25.543Z,1002.04
2019-01-08T02:58:25.447Z,1002.01
2019-01-08T02:59:25.471Z,1001.96
2019-01-08T03:00:25.350Z,1002.00
2019-01-08T03:01:25.286Z,1001.96
2019-01-08T03:02:25.275Z,1001.92
2019-01-08T03:03:25.178Z,1001.92
2019-01-08T03:04:25.125Z,1001.94
2019-01-08T03:05:25.069Z,1001.89
2019-01-08T03:06:25.008Z,1001.91
2019-01-08T03:07:24.982Z,1001.98
2019-01-08T03:08:24.900Z,1001.88
2019-01-08T03:09:24.856Z,1001.87
2019-01-08T03:10:24.824Z,1001.81
2019-01-08T03:11:24.735Z,1001.75
2019-01-08T03:12:24.710Z,1001.78
2019-01-08T03:13:24.641Z,1001.82
2019-01-08T03:14:24.577Z,1001.85
2019-01-08T03:15:24.506Z,1001.77
2019-01-08T03:16:24.471Z,1001.80
2019-01-08T03:17:24.478Z,1001.73
2019-01-08T03:18:24.345Z,1001.70
2019-01-08T03:19:24.296Z,1001.70
2019-01-08T03:20:24.270Z,1001.63
2019-01-08T03:21:24.179Z,1001.65
2019-01-08T03:22:24.150Z,1001.63
2019-01-08T03:23:24.076Z,1001.56
2019-01-08T03:24:24.038Z,1001.54
2019-01-08T03:25:23.966Z,1001.56
2019-01-08T03:26:23.914Z,1001.57
2019-01-08T03:27:23.875Z,1001.61
2019-01-08T03:28:23.810Z,1001.51
2019-01-08T03:29:23.738Z,1001.47
2019-01-08T03:30:23.682Z,1001.46
2019-01-08T03:31:23.662Z,1001.50
2019-01-08T03:32:23.591Z,1001.49
2019-01-08T03:33:23.537Z,1001.43
2019-01-08T03:34:23.467Z,1001.45
2019-01-08T03:35:23.405Z,1001.46
2019-01-08T03:36:24.870Z,1001.39
2019-01-08T03:37:23.328Z,1001.43
2019-01-08T03:38:23.268Z,1001.37
2019-01-08T03:39:23.209Z,1001.37
2019-01-08T03:40:23.222Z,1001.37
2019-01-08T03:41:23.075Z,1001.33
2019-01-08T03:42:23.043Z,1001.31
2019-01-08T03:43:22.961Z,1001.26
2019-01-08T03:44:22.932Z,1001.20
2019-01-08T03:45:22.854Z,1001.18
2019-01-08T03:46:22.837Z,1001.09
2019-01-08T03:47:22.795Z,1001.09
2019-01-08T03:48:22.688Z,1001.06
2019-01-08T03:49:22.666Z,1001.07
2019-01-08T03:50:22.614Z,1001.01
2019-01-08T03:51:22.512Z,1000.97
2019-01-08T03:52:22.533Z,1000.94
2019-01-08T03:53:22.481Z,1000.88
2019-01-08T03:54:22.351Z,1000.89
2019-01-08T03:55:22.293Z,1000.89
2019-01-08T03:56:22.238Z,1000.82
2019-01-08T03:57:22.219Z,1000.87
2019-01-08T03:58:22.190Z,1000.76
2019-01-08T03:59:22.073Z,1000.73
2019-01-08T04:00:22.023Z,1000.70
2019-01-08T04:01:21.985Z,1000.76
2019-01-08T04:02:21.906Z,1000.79
2019-01-08T04:03:21.942Z,1000.77
2019-01-08T04:04:21.820Z,1000.76
2019-01-08T04:05:21.780Z,1000.69
2019-01-08T04:06:21.692Z,1000.66
2019-01-08T04:07:21.668Z,1000.71
2019-01-08T04:08:21.645Z,1000.67
2019-01-08T04:09:21.530Z,1000.60
2019-01-08T04:10:21.526Z,1000.56
2019-01-08T04:11:21.411Z,1000.49
2019-01-08T04:12:21.351Z,1000.54
2019-01-08T04:13:21.325Z,1000.50
2019-01-08T04:14:21.271Z,1000.50
2019-01-08T04:15:21.284Z,1000.40
2019-01-08T04:16:21.144Z,1000.36
2019-01-08T04:17:21.200Z,1000.41
2019-01-08T04:18:21.065Z,1000.30
2019-01-08T04:19:20.987Z,1000.33
2019-01-08T04:20:20.929Z,1000.29
2019-01-08T04:21:20.910Z,1000.30
2019-01-08T04:22:20.824Z,1000.33
2019-01-08T04:23:20.899Z,1000.26
2019-01-08T04:24:20.701Z,1000.29
2019-01-08T04:25:20.633Z,1000.34
2019-01-08T04:26:20.593Z,1000.33
2019-01-08T04:27:20.522Z,1000.33
2019-01-08T04:28:20.573Z,1000.41
2019-01-08T04:29:20.436Z,1000.46
2019-01-08T04:30:20.417Z,1000.49
2019-01-08T04:31:20.307Z,1000.32
2019-01-08T04:32:20.247Z,1000.10
2019-01-08T04:33:20.216Z,1000.25
2019-01-08T04:34:20.151Z,1000.44
2019-01-08T04:35:20.101Z,1000.50
2019-01-08T04:36:20.120Z,1000.47
2019-01-08T04:37:19.978Z,1000.46
2019-01-08T04:38:19.940Z,1000.39
2019-01-08T04:39:19.859Z,1000.30
2019-01-08T04:40:19.838Z,1000.33
2019-01-08T04:41:19.748Z,1000.20
2019-01-08T04:42:19.705Z,1000.18
2019-01-08T04:43:19.631Z,1000.20
2019-01-08T04:44:19.574Z,1000.14
2019-01-08T04:45:19.566Z,1000.06
2019-01-08T04:46:19.491Z,1000.06
2019-01-08T04:47:19.411Z,999.98
2019-01-08T04:48:19.357Z,999.99
2019-01-08T04:49:19.330Z,1000.00
2019-01-08T04:50:19.243Z,1000.02
2019-01-08T04:51:19.208Z,1000.00
2019-01-08T04:52:19.128Z,1000.01
2019-01-08T04:53:19.073Z,1000.00
2019-01-08T04:54:19.042Z,1000.01
2019-01-08T04:55:18.962Z,999.94
2019-01-08T04:56:18.899Z,999.96
2019-01-08T04:57:18.847Z,999.85
2019-01-08T04:58:18.794Z,999.82
2019-01-08T04:59:18.757Z,999.86
2019-01-08T05:00:18.684Z,999.81
2019-01-08T05:01:18.676Z,999.74
2019-01-08T05:02:18.567Z,999.76
2019-01-08T05:03:18.506Z,999.70
2019-01-08T05:04:18.480Z,999.74
2019-01-08T05:05:18.390Z,999.71
2019-01-08T05:06:18.466Z,999.77
2019-01-08T05:07:18.456Z,999.74
2019-01-08T05:08:18.291Z,999.67
2019-01-08T05:09:18.205Z,999.67
2019-01-08T05:10:18.112Z,999.64
2019-01-08T05:11:18.063Z,999.63
2019-01-08T05:12:18.010Z,999.59
2019-01-08T05:13:18.109Z,999.64
2019-01-08T05:14:17.904Z,999.62
2019-01-08T05:15:17.828Z,999.57
2019-01-08T05:16:17.775Z,999.54
2019-01-08T05:17:17.713Z,999.46
2019-01-08T05:18:17.656Z,999.44
2019-01-08T05:19:17.637Z,999.53
2019-01-08T05:20:17.552Z,999.48
2019-01-08T05:21:17.502Z,999.48
2019-01-08T05:22:17.433Z,999.42
2019-01-08T05:23:17.384Z,999.36
2019-01-08T05:24:17.337Z,999.36
2019-01-08T05:25:17.271Z,999.30
2019-01-08T05:26:17.223Z,999.31
2019-01-08T05:27:17.148Z,999.31
2019-01-08T05:28:17.284Z,999.22
2019-01-08T05:29:17.177Z,999.29
2019-01-08T05:30:16.981Z,999.28
2019-01-08T05:31:16.932Z,999.34
2019-01-08T05:32:16.884Z,999.30
2019-01-08T05:33:16.835Z,999.23
2019-01-08T05:34:16.784Z,999.19
2019-01-08T05:35:16.737Z,999.17
2019-01-08T05:36:16.653Z,999.23
2019-01-08T05:37:16.592Z,999.13
2019-01-08T05:38:16.538Z,999.11
2019-01-08T05:39:16.528Z,999.15
2019-01-08T05:40:16.429Z,999.14
2019-01-08T05:41:16.369Z,999.19
2019-01-08T05:42:16.342Z,999.17
2019-01-08T05:43:16.258Z,999.12
2019-01-08T05:44:16.254Z,999.15
2019-01-08T05:45:16.159Z,999.08
2019-01-08T05:46:16.094Z,999.09
2019-01-08T05:47:16.557Z,999.00
2019-01-08T05:48:16.050Z,998.97
2019-01-08T05:49:15.969Z,998.92
2019-01-08T05:50:15.858Z,998.99
2019-01-08T05:51:15.836Z,999.00
2019-01-08T05:52:15.762Z,998.88
2019-01-08T05:53:15.699Z,998.89
2019-01-08T05:54:15.654Z,998.83
2019-01-08T05:55:15.614Z,998.80
2019-01-08T05:56:15.525Z,998.77
2019-01-08T05:57:15.474Z,998.80
2019-01-08T05:58:15.427Z,998.86
2019-01-08T05:59:15.368Z,998.82
2019-01-08T06:00:16.606Z,998.80
2019-01-08T06:01:15.245Z,998.80
2019-01-08T06:02:15.201Z,998.79
2019-01-08T06:03:15.137Z,998.82
2019-01-08T06:04:15.073Z,998.80
2019-01-08T06:05:15.051Z,998.80
2019-01-08T06:06:14.977Z,998.76
2019-01-08T06:07:14.920Z,998.72
2019-01-08T06:08:14.862Z,998.75
2019-01-08T06:09:14.808Z,998.69
2019-01-08T06:10:14.789Z,998.73
2019-01-08T06:11:14.708Z,998.71
2019-01-08T06:12:14.648Z,998.67
2019-01-08T06:13:14.591Z,998.74
2019-01-08T06:14:14.539Z,998.77
2019-01-08T06:15:14.500Z,998.72
2019-01-08T06:16:14.413Z,998.72
2019-01-08T06:17:14.361Z,998.66
2019-01-08T06:18:14.303Z,998.63
2019-01-08T06:19:14.245Z,998.62
2019-01-08T06:20:14.211Z,998.64
2019-01-08T06:21:14.132Z,998.61
2019-01-08T06:22:14.081Z,998.60
2019-01-08T06:23:14.018Z,998.60
2019-01-08T06:24:13.961Z,998.62
2019-01-08T06:25:13.961Z,998.63
2019-01-08T06:26:13.855Z,998.68
2019-01-08T06:27:13.789Z,998.68
2019-01-08T06:28:13.744Z,998.64
2019-01-08T06:29:13.686Z,998.69
2019-01-08T06:30:13.643Z,998.67
2019-01-08T06:31:13.595Z,998.62
2019-01-08T06:32:13.522Z,998.60
2019-01-08T06:33:13.465Z,998.57
2019-01-08T06:34:13.413Z,998.66
2019-01-08T06:35:13.353Z,998.67
2019-01-08T06:36:13.331Z,998.64
2019-01-08T06:37:13.240Z,998.56
2019-01-08T06:38:13.179Z,998.53
2019-01-08T06:39:13.128Z,998.56
2019-01-08T06:40:13.061Z,998.62
2019-01-08T06:41:13.033Z,998.62
2019-01-08T06:42:12.950Z,998.56
2019-01-08T06:43:12.909Z,998.58
2019-01-08T06:44:12.849Z,998.55
2019-01-08T06:45:12.783Z,998.53
2019-01-08T06:46:12.781Z,998.57
2019-01-08T06:47:12.707Z,998.58
2019-01-08T06:48:12.620Z,998.54
2019-01-08T06:49:12.570Z,998.55
2019-01-08T06:50:12.518Z,998.52
2019-01-08T06:51:12.474Z,998.48
2019-01-08T06:52:12.410Z,998.52
2019-01-08T06:53:12.341Z,998.46
2019-01-08T06:54:12.282Z,998.50
2019-01-08T06:55:12.232Z,998.49
2019-01-08T06:56:12.190Z,998.52
2019-01-08T06:57:12.113Z,998.47
2019-01-08T06:58:12.056Z,998.48
2019-01-08T06:59:12.022Z,998.48
2019-01-08T07:00:11.950Z,998.49
2019-01-08T07:01:11.919Z,998.44
2019-01-08T07:02:11.835Z,998.39
2019-01-08T07:03:11.790Z,998.43
2019-01-08T07:04:11.733Z,998.38
2019-01-08T07:05:11.672Z,998.29
2019-01-08T07:06:11.638Z,998.35
2019-01-08T07:07:11.558Z,998.40
2019-01-08T07:08:11.503Z,998.33
2019-01-08T07:09:11.466Z,998.31
2019-01-08T07:10:11.389Z,998.29
2019-01-08T07:11:11.360Z,998.30
2019-01-08T07:12:11.281Z,998.26
2019-01-08T07:13:11.226Z,998.22
2019-01-08T07:14:11.168Z,998.22
2019-01-08T07:15:11.110Z,998.26
2019-01-08T07:16:11.088Z,998.32
2019-01-08T07:17:11.000Z,998.26
2019-01-08T07:18:10.934Z,998.26
2019-01-08T07:19:10.976Z,998.25
2019-01-08T07:20:10.876Z,998.25
2019-01-08T07:21:11.828Z,998.19
2019-01-08T07:22:10.738Z,998.22
2019-01-08T07:23:10.661Z,998.23
2019-01-08T07:24:10.609Z,998.19
2019-01-08T07:25:10.547Z,998.17
2019-01-08T07:26:10.492Z,998.19
2019-01-08T07:27:16.347Z,998.20
2019-01-08T07:28:10.375Z,998.21
2019-01-08T07:29:10.378Z,998.12
2019-01-08T07:30:10.299Z,998.16
2019-01-08T07:31:10.231Z,998.15
2019-01-08T07:32:10.187Z,998.16
2019-01-08T07:33:10.112Z,998.17
2019-01-08T07:34:10.048Z,998.15
2019-01-08T07:35:10.016Z,998.19
2019-01-08T07:36:09.937Z,998.19
2019-01-08T07:37:09.906Z,998.10
2019-01-08T07:38:09.822Z,998.07
2019-01-08T07:39:09.802Z,998.07
2019-01-08T07:40:09.723Z,998.12
2019-01-08T07:41:09.652Z,998.09
2019-01-08T07:42:09.629Z,998.01
2019-01-08T07:43:09.538Z,997.94
2019-01-08T07:44:09.482Z,998.05
2019-01-08T07:45:09.423Z,998.07
2019-01-08T07:46:09.379Z,997.98
2019-01-08T07:47:09.375Z,997.99
2019-01-08T07:48:09.270Z,998.02
2019-01-08T07:49:09.220Z,997.97
2019-01-08T07:50:09.166Z,997.99
2019-01-08T07:51:09.135Z,997.92
2019-01-08T07:52:09.068Z,997.94
2019-01-08T07:53:08.981Z,997.89
2019-01-08T07:54:08.915Z,997.89
2019-01-08T07:55:08.868Z,997.90
2019-01-08T07:56:08.812Z,997.82
2019-01-08T07:57:08.779Z,997.80
2019-01-08T07:58:08.739Z,997.86
2019-01-08T07:59:08.647Z,997.84
2019-01-08T08:00:08.589Z,997.80
2019-01-08T08:01:08.526Z,997.77
2019-01-08T08:02:08.515Z,997.74
2019-01-08T08:03:08.430Z,997.78
2019-01-08T08:04:08.364Z,997.67
2019-01-08T08:05:08.303Z,997.66
2019-01-08T08:06:08.258Z,997.65
2019-01-08T08:07:08.208Z,997.68
2019-01-08T08:08:08.172Z,997.68
2019-01-08T08:09:08.093Z,997.70
2019-01-08T08:10:08.033Z,997.71
2019-01-08T08:11:07.972Z,997.77
2019-01-08T08:12:07.928Z,997.69
2019-01-08T08:13:07.930Z,997.61
2019-01-08T08:14:07.819Z,997.69
2019-01-08T08:15:07.778Z,997.68
2019-01-08T08:16:07.714Z,997.65
2019-01-08T08:17:07.638Z,997.62
2019-01-08T08:18:07.611Z,997.65
2019-01-08T08:19:08.190Z,997.62
2019-01-08T08:20:07.472Z,997.56
2019-01-08T08:21:07.422Z,997.56
2019-01-08T08:22:07.370Z,997.54
2019-01-08T08:23:07.344Z,997.65
2019-01-08T08:24:07.290Z,997.57
2019-01-08T08:25:07.187Z,997.55
2019-01-08T08:26:07.130Z,997.58
2019-01-08T08:27:07.078Z,997.54
2019-01-08T08:28:07.085Z,997.57
2019-01-08T08:29:06.973Z,997.60
2019-01-08T08:30:06.924Z,997.54
2019-01-08T08:31:06.851Z,997.53
2019-01-08T08:32:06.792Z,997.53
2019-01-08T08:33:06.783Z,997.50
2019-01-08T08:34:06.689Z,997.41
2019-01-08T08:35:08.687Z,997.48
2019-01-08T08:36:06.611Z,997.43
2019-01-08T08:37:06.590Z,997.37
2019-01-08T08:38:06.498Z,997.41
2019-01-08T08:39:06.420Z,997.47
2019-01-08T08:40:06.355Z,997.42
2019-01-08T08:41:06.328Z,997.34
2019-01-08T08:42:06.266Z,997.35
2019-01-08T08:43:06.265Z,997.35
2019-01-08T08:44:06.127Z,997.38
2019-01-08T08:45:06.078Z,997.37
2019-01-08T08:46:06.022Z,997.28
2019-01-08T08:47:05.960Z,997.35
2019-01-08T08:48:05.969Z,997.32
2019-01-08T08:49:05.892Z,997.35
2019-01-08T08:50:05.803Z,997.31
2019-01-08T08:51:05.774Z,997.23
2019-01-08T08:52:05.680Z,997.17
2019-01-08T08:53:05.659Z,997.15
2019-01-08T08:54:05.570Z,997.19
2019-01-08T08:55:05.523Z,997.20
2019-01-08T08:56:05.453Z,997.24
2019-01-08T08:57:05.397Z,997.29
2019-01-08T08:58:05.384Z,997.25
2019-01-08T08:59:05.294Z,997.23
2019-01-08T09:00:05.243Z,997.24
2019-01-08T09:01:06.973Z,997.25
2019-01-08T09:02:05.121Z,997.27
2019-01-08T09:03:05.067Z,997.19
2019-01-08T09:04:05.027Z,997.18
2019-01-08T09:05:04.954Z,997.24
2019-01-08T09:06:04.904Z,997.18
2019-01-08T09:07:04.841Z,997.13
2019-01-08T09:08:04.793Z,997.19
2019-01-08T09:09:04.754Z,997.25
2019-01-08T09:10:04.667Z,997.23
2019-01-08T09:11:04.940Z,997.06
2019-01-08T09:12:04.556Z,997.02
2019-01-08T09:13:04.524Z,997.15
2019-01-08T09:14:04.474Z,997.07
2019-01-08T09:15:04.395Z,997.04
2019-01-08T09:16:04.368Z,997.15
2019-01-08T09:17:04.299Z,997.11
2019-01-08T09:18:04.234Z,997.16
2019-01-08T09:19:04.212Z,997.19
2019-01-08T09:20:04.131Z,997.16
2019-01-08T09:21:04.061Z,997.20
2019-01-08T09:22:04.009Z,997.18
2019-01-08T09:23:03.937Z,997.15
2019-01-08T09:24:03.932Z,997.11
2019-01-08T09:25:03.830Z,997.08
2019-01-08T09:26:03.778Z,997.02
2019-01-08T09:27:03.718Z,997.14
2019-01-08T09:28:03.668Z,997.00
2019-01-08T09:29:03.651Z,997.04
2019-01-08T09:30:03.564Z,997.03
2019-01-08T09:31:03.535Z,997.13
2019-01-08T09:32:03.443Z,997.11
2019-01-08T09:33:03.614Z,997.27
2019-01-08T09:34:03.466Z,997.28
2019-01-08T09:35:03.270Z,997.28
2019-01-08T09:36:03.255Z,997.36
2019-01-08T09:37:03.238Z,997.34
2019-01-08T09:38:03.149Z,997.28
2019-01-08T09:39:03.087Z,997.31
2019-01-08T09:40:03.004Z,997.15
2019-01-08T09:41:02.966Z,997.25
2019-01-08T09:42:02.925Z,997.20
2019-01-08T09:43:02.827Z,997.31
2019-01-08T09:44:02.886Z,997.23
2019-01-08T09:45:02.779Z,997.20
2019-01-08T09:46:02.660Z,997.15
2019-01-08T09:47:02.605Z,997.26
2019-01-08T09:48:02.541Z,997.17
2019-01-08T09:49:02.545Z,997.18
2019-01-08T09:50:02.433Z,997.21
2019-01-08T09:51:02.397Z,997.20
2019-01-08T09:52:02.377Z,997.21
2019-01-08T09:53:02.311Z,997.19
2019-01-08T09:54:02.528Z,997.29
2019-01-08T09:55:02.195Z,997.18
2019-01-08T09:56:02.270Z,997.25
2019-01-08T09:57:02.046Z,997.23
2019-01-08T09:58:02.119Z,997.21
2019-01-08T09:59:01.962Z,997.29
2019-01-08T10:00:01.871Z,997.26
2019-01-08T10:01:01.821Z,997.16
2019-01-08T10:02:01.772Z,997.27
2019-01-08T10:03:01.709Z,997.16
2019-01-08T10:04:01.682Z,997.20
2019-01-08T10:05:01.791Z,997.18
2019-01-08T10:06:01.565Z,997.12
2019-01-08T10:07:01.499Z,997.10
2019-01-08T10:08:01.429Z,997.09
2019-01-08T10:09:01.414Z,997.03
2019-01-08T10:10:01.317Z,997.09
2019-01-08T10:11:01.268Z,997.10
2019-01-08T10:12:01.247Z,997.00
2019-01-08T10:13:01.151Z,997.07
2019-01-08T10:14:01.141Z,997.09
2019-01-08T10:15:01.049Z,997.07
2019-01-08T10:16:00.996Z,997.01
2019-01-08T10:17:00.923Z,997.02
2019-01-08T10:18:00.879Z,996.98
2019-01-08T10:19:00.830Z,997.03
2019-01-08T10:20:00.778Z,997.10
2019-01-08T10:21:00.748Z,997.17
2019-01-08T10:22:00.650Z,997.15
2019-01-08T10:23:00.594Z,997.13
2019-01-08T10:24:02.035Z,997.13
2019-01-08T10:25:00.520Z,997.08
2019-01-08T10:26:00.423Z,997.07
2019-01-08T10:27:00.378Z,997.06
2019-01-08T10:28:00.331Z,997.07
2019-01-08T10:29:00.267Z,997.03
2019-01-08T10:30:00.232Z,997.05
2019-01-08T10:31:00.157Z,997.12
2019-01-08T10:32:00.098Z,997.03
2019-01-08T10:33:00.048Z,996.95
2019-01-08T10:33:59.972Z,996.95
2019-01-08T10:34:59.958Z,996.95
2019-01-08T10:35:59.869Z,996.97
2019-01-08T10:36:59.817Z,996.94
2019-01-08T10:37:59.755Z,996.97
2019-01-08T10:38:59.697Z,996.90
2019-01-08T10:40:01.412Z,996.88
2019-01-08T10:40:59.593Z,996.94
2019-01-08T10:41:59.566Z,996.86
2019-01-08T10:42:59.560Z,996.87
2019-01-08T10:43:59.424Z,996.86
2019-01-08T10:44:59.394Z,996.89
2019-01-08T10:45:59.316Z,996.92
2019-01-08T10:46:59.266Z,996.91
2019-01-08T10:47:59.198Z,996.95
2019-01-08T10:48:59.144Z,996.81
2019-01-08T10:49:59.111Z,996.76
2019-01-08T10:50:59.035Z,996.78
2019-01-08T10:51:58.989Z,996.76
2019-01-08T10:52:58.919Z,996.77
2019-01-08T10:53:58.865Z,996.75
2019-01-08T10:54:58.889Z,996.76
2019-01-08T10:55:58.756Z,996.73
2019-01-08T10:56:58.694Z,996.78
2019-01-08T10:57:58.656Z,996.81
2019-01-08T10:58:58.607Z,996.80
2019-01-08T10:59:58.578Z,996.85
2019-01-08T11:00:58.485Z,996.82
2019-01-08T11:01:58.420Z,996.89
2019-01-08T11:02:58.369Z,996.79
2019-01-08T11:03:58.325Z,996.80
2019-01-08T11:04:58.276Z,996.83
2019-01-08T11:05:58.235Z,996.77
2019-01-08T11:06:58.151Z,996.78
2019-01-08T11:07:58.093Z,996.79
2019-01-08T11:08:58.061Z,996.77
2019-01-08T11:09:57.977Z,996.74
2019-01-08T11:10:57.968Z,996.76
2019-01-08T11:11:57.880Z,996.72
2019-01-08T11:12:57.816Z,996.65
2019-01-08T11:13:57.772Z,996.78
2019-01-08T11:14:57.704Z,996.73
2019-01-08T11:15:57.678Z,996.71
2019-01-08T11:16:57.601Z,996.69
2019-01-08T11:17:57.545Z,996.64
2019-01-08T11:18:57.470Z,996.69
2019-01-08T11:19:57.424Z,996.67
2019-01-08T11:20:57.384Z,996.75
2019-01-08T11:21:57.313Z,996.75
2019-01-08T11:22:57.265Z,996.70
2019-01-08T11:23:57.204Z,996.71
2019-01-08T11:24:57.407Z,996.64
2019-01-08T11:25:57.252Z,996.70
2019-01-08T11:26:57.114Z,996.77
2019-01-08T11:27:56.983Z,996.82
2019-01-08T11:28:56.955Z,996.91
2019-01-08T11:29:56.935Z,996.86
2019-01-08T11:30:56.944Z,996.92
2019-01-08T11:31:56.749Z,996.93
2019-01-08T11:32:56.742Z,997.00
2019-01-08T11:33:56.649Z,997.12
2019-01-08T11:34:56.695Z,997.17
2019-01-08T11:35:56.564Z,997.13
2019-01-08T11:36:56.474Z,997.02
2019-01-08T11:37:56.418Z,997.01
2019-01-08T11:38:56.354Z,997.03
2019-01-08T11:39:56.324Z,997.10
2019-01-08T11:40:56.475Z,997.13
2019-01-08T11:41:56.309Z,997.09
2019-01-08T11:42:56.259Z,997.20
2019-01-08T11:43:56.110Z,997.10
2019-01-08T11:44:56.021Z,996.99
2019-01-08T11:45:56.014Z,997.09
2019-01-08T11:46:55.953Z,997.10
2019-01-08T11:48:03.559Z,997.08
2019-01-08T11:48:55.919Z,997.10
2019-01-08T11:49:55.770Z,997.06
2019-01-08T11:50:55.836Z,997.09
2019-01-08T11:51:55.670Z,997.11
2019-01-08T11:52:55.609Z,997.09
2019-01-08T11:53:55.581Z,997.10
2019-01-08T11:54:55.583Z,997.17
2019-01-08T11:55:55.548Z,997.09
2019-01-08T11:56:55.363Z,996.97
2019-01-08T11:57:55.303Z,996.98
2019-01-08T11:58:55.267Z,997.06
2019-01-08T11:59:55.206Z,997.04
2019-01-08T12:00:55.237Z,997.03
2019-01-08T12:01:57.438Z,996.98
2019-01-08T12:02:55.033Z,996.98
2019-01-08T12:03:55.004Z,997.05
2019-01-08T12:04:54.954Z,997.11
2019-01-08T12:05:54.966Z,996.95
2019-01-08T12:06:54.816Z,996.96
2019-01-08T12:07:54.755Z,997.00
2019-01-08T12:08:54.716Z,996.98
2019-01-08T12:09:54.696Z,996.95
2019-01-08T12:10:54.602Z,997.00
2019-01-08T12:11:54.579Z,997.07
2019-01-08T12:12:54.533Z,997.12
2019-01-08T12:13:54.458Z,997.02
2019-01-08T12:14:54.373Z,997.00
2019-01-08T12:15:54.440Z,997.06
2019-01-08T12:16:54.304Z,997.07
2019-01-08T12:17:54.209Z,997.00
2019-01-08T12:18:54.185Z,997.03